createdAt,value
2022-10-18T00:02:00.744Z,17.10
2022-10-18T00:04:29.536Z,17.10
2022-10-18T00:07:07.184Z,17.20
2022-10-18T00:09:41.964Z,17.20
2022-10-18T00:12:13.550Z,17.10
2022-10-18T00:14:44.959Z,17.10
2022-10-18T00:17:13.616Z,17.10
2022-10-18T00:19:42.990Z,17.10
2022-10-18T00:22:15.111Z,17.00
2022-10-18T00:24:53.094Z,17.00
2022-10-18T00:27:22.176Z,17.00
2022-10-18T00:29:56.877Z,17.00
2022-10-18T00:32:25.328Z,17.00
2022-10-18T00:35:05.622Z,16.90
2022-10-18T00:37:42.817Z,16.90
2022-10-18T00:40:12.109Z,16.90
2022-10-18T00:42:46.710Z,16.90
2022-10-18T00:45:20.043Z,16.90
2022-10-18T00:48:09.040Z,17.00
2022-10-18T00:50:37.749Z,17.00
2022-10-18T00:53:11.036Z,17.00
2022-10-18T00:55:41.919Z,17.00
2022-10-18T00:58:11.565Z,16.90
2022-10-18T01:00:41.511Z,16.90
2022-10-18T01:03:09.678Z,16.80
2022-10-18T01:05:43.951Z,16.80
2022-10-18T01:08:18.483Z,16.80
2022-10-18T01:11:02.936Z,16.80
2022-10-18T01:13:33.465Z,16.80
2022-10-18T01:16:05.158Z,16.80
2022-10-18T01:18:50.890Z,16.80
2022-10-18T01:21:19.963Z,16.80
2022-10-18T01:23:51.626Z,16.70
2022-10-18T01:26:34.233Z,16.70
2022-10-18T01:29:28.634Z,16.70
2022-10-18T01:32:32.634Z,16.70
2022-10-18T01:35:02.593Z,16.70
2022-10-18T01:37:36.601Z,16.60
2022-10-18T01:40:08.136Z,16.60
2022-10-18T01:42:37.253Z,16.70
2022-10-18T01:45:05.753Z,16.70
2022-10-18T01:47:38.502Z,16.70
2022-10-18T01:50:06.327Z,16.60
2022-10-18T01:52:33.978Z,16.70
2022-10-18T01:55:01.564Z,16.70
2022-10-18T01:57:37.717Z,16.70
2022-10-18T02:00:15.680Z,16.70
2022-10-18T02:02:55.219Z,16.70
2022-10-18T02:05:22.292Z,16.70
2022-10-18T02:08:19.017Z,16.70
2022-10-18T02:11:10.139Z,16.60
2022-10-18T02:13:42.065Z,16.70
2022-10-18T02:16:11.775Z,16.60
2022-10-18T02:18:58.345Z,16.60
2022-10-18T02:21:25.648Z,16.70
2022-10-18T02:23:53.033Z,16.60
2022-10-18T02:26:22.851Z,16.70
2022-10-18T02:28:50.034Z,16.70
2022-10-18T02:31:22.686Z,16.70
2022-10-18T02:33:52.972Z,16.70
2022-10-18T02:36:24.402Z,16.70
2022-10-18T02:38:54.237Z,16.70
2022-10-18T02:41:25.902Z,16.70
2022-10-18T02:43:53.145Z,16.70
2022-10-18T02:46:20.490Z,16.80
2022-10-18T02:48:47.518Z,16.80
2022-10-18T02:51:14.721Z,16.70
2022-10-18T02:53:49.170Z,16.80
2022-10-18T02:56:16.847Z,16.70
2022-10-18T02:58:46.561Z,16.70
2022-10-18T03:01:13.838Z,16.60
2022-10-18T03:03:42.385Z,16.60
2022-10-18T03:06:18.435Z,16.60
2022-10-18T03:08:45.871Z,16.50
2022-10-18T03:11:13.075Z,16.50
2022-10-18T03:13:44.381Z,16.50
2022-10-18T03:16:13.715Z,16.50
2022-10-18T03:19:03.110Z,16.50
2022-10-18T03:21:28.193Z,16.50
2022-10-18T03:24:02.711Z,16.50
2022-10-18T03:26:34.356Z,16.60
2022-10-18T03:29:01.414Z,16.60
2022-10-18T03:31:28.394Z,16.60
2022-10-18T03:34:05.655Z,16.60
2022-10-18T03:36:35.983Z,16.60
2022-10-18T03:39:05.606Z,16.60
2022-10-18T03:41:53.411Z,16.50
2022-10-18T03:44:25.555Z,16.50
2022-10-18T03:47:06.552Z,16.40
2022-10-18T03:52:03.619Z,16.10
2022-10-18T03:54:34.017Z,16.00
2022-10-18T03:57:12.775Z,16.00
2022-10-18T03:59:43.079Z,16.00
2022-10-18T04:02:09.744Z,15.90
2022-10-18T04:04:36.272Z,15.90
2022-10-18T04:07:02.793Z,15.90
2022-10-18T04:09:29.581Z,15.80
2022-10-18T04:11:56.028Z,15.70
2022-10-18T04:14:22.573Z,15.70
2022-10-18T04:16:49.089Z,15.70
2022-10-18T04:19:15.700Z,15.60
2022-10-18T04:21:42.190Z,15.60
2022-10-18T04:24:08.641Z,15.60
2022-10-18T04:26:35.162Z,15.60
2022-10-18T04:29:01.705Z,15.60
2022-10-18T04:31:28.190Z,15.60
2022-10-18T04:33:54.787Z,15.60
2022-10-18T04:36:21.236Z,15.60
2022-10-18T04:38:47.772Z,15.50
2022-10-18T04:41:14.310Z,15.50
2022-10-18T04:43:40.804Z,15.40
2022-10-18T04:46:07.316Z,15.40
2022-10-18T04:48:33.776Z,15.40
2022-10-18T04:51:00.230Z,15.50
2022-10-18T04:53:26.709Z,15.40
2022-10-18T04:55:53.170Z,15.50
2022-10-18T04:58:19.896Z,15.50
2022-10-18T05:00:47.637Z,15.50
2022-10-18T05:03:14.427Z,15.50
2022-10-18T05:06:00.154Z,15.50
2022-10-18T05:08:27.839Z,15.50
2022-10-18T05:10:54.387Z,15.50
2022-10-18T05:13:20.961Z,15.50
2022-10-18T05:15:47.762Z,15.60
2022-10-18T05:18:14.462Z,15.60
2022-10-18T05:20:40.976Z,15.60
2022-10-18T05:23:10.626Z,15.50
2022-10-18T05:25:40.728Z,15.60
2022-10-18T05:28:10.931Z,15.60
2022-10-18T05:30:47.743Z,15.50
2022-10-18T05:33:14.186Z,15.50
2022-10-18T05:35:40.668Z,15.50
2022-10-18T05:38:07.129Z,15.50
2022-10-18T05:40:33.710Z,15.40
2022-10-18T05:43:00.165Z,15.40
2022-10-18T05:45:26.605Z,15.40
2022-10-18T05:47:53.076Z,15.40
2022-10-18T05:50:19.563Z,15.40
2022-10-18T05:52:46.017Z,15.40
2022-10-18T05:55:12.544Z,15.40
2022-10-18T05:57:39.027Z,15.40
2022-10-18T06:00:45.971Z,15.40
2022-10-18T06:03:36.963Z,15.50
2022-10-18T06:06:19.118Z,15.50
2022-10-18T06:08:49.750Z,15.50
2022-10-18T06:11:24.754Z,15.50
2022-10-18T06:13:59.068Z,15.50
2022-10-18T06:19:47.252Z,15.50
2022-10-18T06:22:33.260Z,15.50
2022-10-18T06:25:03.503Z,15.40
2022-10-18T06:33:55.671Z,15.40
2022-10-18T06:36:27.198Z,15.30
2022-10-18T06:39:11.715Z,15.30
2022-10-18T06:41:49.236Z,15.40
2022-10-18T06:48:14.891Z,15.50
2022-10-18T06:51:24.692Z,15.50
2022-10-18T06:54:35.755Z,15.50
2022-10-18T06:59:43.348Z,15.40
2022-10-18T07:02:14.417Z,15.50
2022-10-18T07:04:40.829Z,15.50
2022-10-18T07:07:07.242Z,15.50
2022-10-18T07:09:33.756Z,15.40
2022-10-18T07:12:00.685Z,15.50
2022-10-18T07:14:29.252Z,15.50
2022-10-18T07:16:58.339Z,15.50
2022-10-18T07:19:24.749Z,15.50
2022-10-18T07:21:51.215Z,15.50
2022-10-18T07:24:17.632Z,15.50
2022-10-18T07:26:44.176Z,15.60
2022-10-18T07:29:11.981Z,15.70
2022-10-18T07:31:38.968Z,15.70
2022-10-18T07:34:05.574Z,15.80
2022-10-18T07:36:32.256Z,15.80
2022-10-18T07:38:59.576Z,15.90
2022-10-18T07:41:26.113Z,15.90
2022-10-18T07:43:52.783Z,15.90
2022-10-18T07:46:20.208Z,15.90
2022-10-18T07:48:46.950Z,15.80
2022-10-18T07:51:13.890Z,15.80
2022-10-18T07:53:40.487Z,15.80
2022-10-18T07:56:09.635Z,15.90
2022-10-18T07:58:36.579Z,15.90
2022-10-18T08:01:06.903Z,16.00
2022-10-18T08:03:33.866Z,16.10
2022-10-18T08:06:00.316Z,16.10
2022-10-18T08:08:27.154Z,16.20
2022-10-18T08:10:53.765Z,16.30
2022-10-18T08:13:20.487Z,16.40
2022-10-18T08:15:47.120Z,16.50
2022-10-18T08:18:13.718Z,16.50
2022-10-18T08:20:44.231Z,16.60
2022-10-18T08:23:11.039Z,16.70
2022-10-18T08:25:37.527Z,16.80
2022-10-18T08:28:04.109Z,17.00
2022-10-18T08:30:30.572Z,17.20
2022-10-18T08:32:57.001Z,17.40
2022-10-18T08:35:23.531Z,17.40
2022-10-18T08:37:50.082Z,17.30
2022-10-18T08:40:16.633Z,17.30
2022-10-18T08:43:00.816Z,17.20
2022-10-18T08:45:41.918Z,17.20
2022-10-18T08:48:18.976Z,17.30
2022-10-18T08:50:46.337Z,17.30
2022-10-18T08:53:16.014Z,17.20
2022-10-18T08:55:42.673Z,17.20
2022-10-18T08:58:14.422Z,17.20
2022-10-18T09:01:02.306Z,17.30
2022-10-18T09:03:51.062Z,17.50
2022-10-18T09:06:24.053Z,17.70
2022-10-18T09:08:58.695Z,18.20
2022-10-18T09:11:51.139Z,18.40
2022-10-18T09:14:40.115Z,18.50
2022-10-18T09:17:17.712Z,18.60
2022-10-18T09:20:02.671Z,18.60
2022-10-18T09:22:38.616Z,18.60
2022-10-18T09:25:17.077Z,18.70
2022-10-18T09:27:51.248Z,18.80
2022-10-18T09:30:32.416Z,19.00
2022-10-18T09:33:11.633Z,19.20
2022-10-18T09:35:51.711Z,19.40
2022-10-18T09:38:31.484Z,19.30
2022-10-18T09:41:16.276Z,19.30
2022-10-18T09:43:59.366Z,19.30
2022-10-18T09:46:32.603Z,19.20
2022-10-18T09:49:05.071Z,19.10
2022-10-18T09:51:40.299Z,19.00
2022-10-18T09:54:38.617Z,19.00
2022-10-18T09:57:15.180Z,19.10
2022-10-18T09:59:41.870Z,19.20
2022-10-18T10:02:22.684Z,19.20
2022-10-18T10:07:42.660Z,19.30
2022-10-18T10:10:14.875Z,19.30
2022-10-18T10:12:50.068Z,19.30
2022-10-18T10:15:20.606Z,19.20
2022-10-18T10:17:58.046Z,19.10
2022-10-18T10:20:32.569Z,19.10
2022-10-18T10:23:08.441Z,19.10
2022-10-18T10:25:45.277Z,19.20
2022-10-18T10:28:23.644Z,19.20
2022-10-18T10:30:53.990Z,19.20
2022-10-18T10:33:34.938Z,19.10
2022-10-18T10:36:17.270Z,19.00
2022-10-18T10:38:44.365Z,19.10
2022-10-18T10:41:22.029Z,19.20
2022-10-18T10:43:50.227Z,19.30
2022-10-18T10:46:21.002Z,19.50
2022-10-18T10:49:03.305Z,19.50
2022-10-18T10:51:43.911Z,19.50
2022-10-18T10:54:15.312Z,19.50
2022-10-18T10:57:06.122Z,19.40
2022-10-18T10:59:43.815Z,19.30
2022-10-18T11:02:18.118Z,19.30
2022-10-18T11:04:46.354Z,19.40
2022-10-18T11:07:30.897Z,19.40
2022-10-18T11:10:10.075Z,19.40
2022-10-18T11:12:38.997Z,19.50
2022-10-18T11:15:19.168Z,19.70
2022-10-18T11:17:49.513Z,19.80
2022-10-18T11:20:20.437Z,20.00
2022-10-18T11:22:58.271Z,20.20
2022-10-18T11:25:45.462Z,20.50
2022-10-18T11:28:20.843Z,20.90
2022-10-18T11:31:00.984Z,21.20
2022-10-18T11:33:56.366Z,21.40
2022-10-18T11:36:25.709Z,21.70
2022-10-18T11:39:11.710Z,22.40
2022-10-18T11:41:50.260Z,22.80
2022-10-18T11:44:26.576Z,23.20
2022-10-18T11:47:03.525Z,23.20
2022-10-18T11:49:42.943Z,23.30
2022-10-18T11:52:19.231Z,23.10
2022-10-18T11:54:49.124Z,23.00
2022-10-18T11:57:16.076Z,22.80
2022-10-18T11:59:44.958Z,22.70
2022-10-18T12:02:31.680Z,22.60
2022-10-18T12:05:23.514Z,22.50
2022-10-18T12:07:59.088Z,22.40
2022-10-18T12:10:39.309Z,22.50
2022-10-18T12:13:18.289Z,22.80
2022-10-18T12:15:48.819Z,23.10
2022-10-18T12:18:21.987Z,23.10
2022-10-18T12:20:50.998Z,23.10
2022-10-18T12:23:22.542Z,23.00
2022-10-18T12:25:54.446Z,22.80
2022-10-18T12:28:30.459Z,22.60
2022-10-18T12:31:07.080Z,22.50
2022-10-18T12:33:46.018Z,22.30
2022-10-18T12:36:19.164Z,22.40
2022-10-18T12:38:48.231Z,22.70
2022-10-18T12:41:22.582Z,22.90
2022-10-18T12:43:54.124Z,23.00
2022-10-18T12:46:23.945Z,23.00
2022-10-18T12:49:01.699Z,22.80
2022-10-18T12:51:28.704Z,22.60
2022-10-18T12:53:58.359Z,22.40
2022-10-18T12:56:28.775Z,22.20
2022-10-18T12:59:17.278Z,21.90
2022-10-18T13:01:53.521Z,21.70
2022-10-18T13:04:29.700Z,21.40
2022-10-18T13:07:03.204Z,21.10
2022-10-18T13:09:38.266Z,20.90
2022-10-18T13:12:17.586Z,20.70
2022-10-18T13:15:12.658Z,20.60
2022-10-18T13:17:52.880Z,20.50
2022-10-18T13:20:32.211Z,20.50
2022-10-18T13:23:05.616Z,20.50
2022-10-18T13:25:50.907Z,20.50
2022-10-18T13:28:29.591Z,20.40
2022-10-18T13:31:10.139Z,20.50
2022-10-18T13:33:39.124Z,20.50
2022-10-18T13:36:17.417Z,20.70
2022-10-18T13:38:57.454Z,20.90
2022-10-18T13:41:25.341Z,21.10
2022-10-18T13:43:57.805Z,21.10
2022-10-18T13:46:24.223Z,21.00
2022-10-18T13:48:52.002Z,20.80
2022-10-18T13:51:27.516Z,20.70
2022-10-18T13:54:08.992Z,20.70
2022-10-18T13:56:38.581Z,20.80
2022-10-18T13:59:23.984Z,20.80
2022-10-18T14:02:02.816Z,20.70
2022-10-18T14:04:37.736Z,20.80
2022-10-18T14:07:05.628Z,20.80
2022-10-18T14:09:54.948Z,20.80
2022-10-18T14:12:41.648Z,20.80
2022-10-18T14:15:23.205Z,20.90
2022-10-18T14:17:54.772Z,21.10
2022-10-18T14:20:29.566Z,21.30
2022-10-18T14:23:02.311Z,21.30
2022-10-18T14:25:30.910Z,21.30
2022-10-18T14:28:12.884Z,21.10
2022-10-18T14:30:54.786Z,20.90
2022-10-18T14:33:35.152Z,20.80
2022-10-18T14:36:11.659Z,20.80
2022-10-18T14:38:51.660Z,20.90
2022-10-18T14:41:22.628Z,21.00
2022-10-18T14:43:49.459Z,21.10
2022-10-18T14:46:17.942Z,21.20
2022-10-18T14:48:58.184Z,21.30
2022-10-18T14:51:25.819Z,21.30
2022-10-18T14:53:52.590Z,21.40
2022-10-18T14:56:30.728Z,21.40
2022-10-18T14:58:58.324Z,21.30
2022-10-18T15:01:26.991Z,21.30
2022-10-18T15:04:00.831Z,21.20
2022-10-18T15:06:27.266Z,21.10
2022-10-18T15:08:55.581Z,21.00
2022-10-18T15:11:22.505Z,20.90
2022-10-18T15:13:54.379Z,20.90
2022-10-18T15:16:22.905Z,20.80
2022-10-18T15:18:59.860Z,20.70
2022-10-18T15:21:26.498Z,20.60
2022-10-18T15:23:54.076Z,20.50
2022-10-18T15:26:23.090Z,20.40
2022-10-18T15:28:52.773Z,20.30
2022-10-18T15:31:22.422Z,20.20
2022-10-18T15:33:49.003Z,20.10
2022-10-18T15:36:26.439Z,20.00
2022-10-18T15:38:53.041Z,19.80
2022-10-18T15:41:39.412Z,19.70
2022-10-18T15:44:10.112Z,19.60
2022-10-18T15:46:38.610Z,19.50
2022-10-18T15:49:23.677Z,19.50
2022-10-18T15:51:55.520Z,19.40
2022-10-18T15:54:31.126Z,19.40
2022-10-18T15:56:57.932Z,19.30
2022-10-18T15:59:26.213Z,19.30
2022-10-18T16:01:52.719Z,19.20
2022-10-18T16:04:19.684Z,19.20
2022-10-18T16:06:46.710Z,19.10
2022-10-18T16:09:18.792Z,19.00
2022-10-18T16:11:46.766Z,18.80
2022-10-18T16:14:14.050Z,18.70
2022-10-18T16:16:41.464Z,18.60
2022-10-18T16:19:08.592Z,18.50
2022-10-18T16:21:40.247Z,18.30
2022-10-18T16:24:10.288Z,18.20
2022-10-18T16:26:39.026Z,18.10
2022-10-18T16:29:06.601Z,18.00
2022-10-18T16:31:34.659Z,17.80
2022-10-18T16:34:05.170Z,17.80
2022-10-18T16:36:33.995Z,17.70
2022-10-18T16:39:02.199Z,17.60
2022-10-18T16:41:28.740Z,17.50
2022-10-18T16:43:55.309Z,17.40
2022-10-18T16:46:23.134Z,17.30
2022-10-18T16:48:50.564Z,17.10
2022-10-18T16:51:17.341Z,17.10
2022-10-18T16:53:44.083Z,17.00
2022-10-18T16:56:12.759Z,16.90
2022-10-18T16:58:48.348Z,16.80
2022-10-18T17:01:49.360Z,16.70
2022-10-18T17:04:32.119Z,16.70
2022-10-18T17:07:13.547Z,16.70
2022-10-18T17:09:52.024Z,16.60
2022-10-18T17:12:33.148Z,16.50
2022-10-18T17:15:13.277Z,16.40
2022-10-18T17:17:46.477Z,16.40
2022-10-18T17:20:33.570Z,16.30
2022-10-18T17:23:18.054Z,16.30
2022-10-18T17:26:04.964Z,16.20
2022-10-18T17:28:33.741Z,16.20
2022-10-18T17:31:00.254Z,16.10
2022-10-18T17:33:26.670Z,16.10
2022-10-18T17:35:53.168Z,16.10
2022-10-18T17:38:19.619Z,16.10
2022-10-18T17:40:46.183Z,16.10
2022-10-18T17:43:13.579Z,16.10
2022-10-18T17:45:52.592Z,16.10
2022-10-18T17:48:19.913Z,16.10
2022-10-18T17:50:46.406Z,16.10
2022-10-18T17:53:13.026Z,16.10
2022-10-18T17:55:40.200Z,16.10
2022-10-18T17:58:06.681Z,16.00
2022-10-18T18:00:33.086Z,16.00
2022-10-18T18:03:00.541Z,16.00
2022-10-18T18:05:30.896Z,16.00
2022-10-18T18:08:02.745Z,16.00
2022-10-18T18:10:32.325Z,16.00
2022-10-18T18:12:58.812Z,16.00
2022-10-18T18:15:25.269Z,16.00
2022-10-18T18:17:58.887Z,16.00
2022-10-18T18:20:25.915Z,15.90
2022-10-18T18:22:52.625Z,15.90
2022-10-18T18:25:19.083Z,15.90
2022-10-18T18:27:45.529Z,15.80
2022-10-18T18:30:12.147Z,15.80
2022-10-18T18:32:38.580Z,15.70
2022-10-18T18:35:05.251Z,15.70
2022-10-18T18:37:31.733Z,15.60
2022-10-18T18:39:58.152Z,15.60
2022-10-18T18:42:24.764Z,15.50
2022-10-18T18:44:51.170Z,15.50
2022-10-18T18:47:21.451Z,15.50
2022-10-18T18:49:48.277Z,15.40
2022-10-18T18:52:14.739Z,15.40
2022-10-18T18:54:41.185Z,15.30
2022-10-18T18:57:09.330Z,15.30
2022-10-18T18:59:37.677Z,15.20
2022-10-18T19:02:04.633Z,15.20
2022-10-18T19:04:31.817Z,15.20
2022-10-18T19:06:59.353Z,15.20
2022-10-18T19:09:27.608Z,15.10
2022-10-18T19:11:56.038Z,15.10
2022-10-18T19:20:54.276Z,14.90
2022-10-18T19:23:20.736Z,14.90
2022-10-18T19:25:47.213Z,14.90
2022-10-18T19:28:13.729Z,14.80
2022-10-18T19:30:40.146Z,14.90
2022-10-18T19:33:06.771Z,14.90
2022-10-18T19:35:33.230Z,14.90
2022-10-18T19:37:59.645Z,14.90
2022-10-18T19:40:26.110Z,15.00
2022-10-18T19:42:52.875Z,15.00
2022-10-18T19:45:19.337Z,15.00
2022-10-18T19:47:45.845Z,14.90
2022-10-18T19:50:12.283Z,14.90
2022-10-18T19:52:38.691Z,14.90
2022-10-18T19:55:05.431Z,14.90
2022-10-18T19:57:35.687Z,14.90
2022-10-18T20:00:08.200Z,14.80
2022-10-18T20:02:50.564Z,14.80
2022-10-18T20:05:17.003Z,14.70
2022-10-18T20:07:45.222Z,14.70
2022-10-18T20:10:11.632Z,14.70
2022-10-18T20:12:38.063Z,14.70
2022-10-18T20:15:05.118Z,14.70
2022-10-18T20:17:32.284Z,14.70
2022-10-18T20:19:58.716Z,14.70
2022-10-18T20:22:25.163Z,14.70
2022-10-18T20:24:51.617Z,14.70
2022-10-18T20:27:29.399Z,14.70
2022-10-18T20:30:10.418Z,14.70
2022-10-18T20:32:41.782Z,14.70
2022-10-18T20:35:14.088Z,14.70
2022-10-18T20:37:40.508Z,14.70
2022-10-18T20:40:07.212Z,14.70
2022-10-18T20:42:33.857Z,14.70
2022-10-18T20:45:00.487Z,14.60
2022-10-18T20:47:26.988Z,14.50
2022-10-18T20:49:53.481Z,14.50
2022-10-18T20:52:19.918Z,14.40
2022-10-18T20:54:46.349Z,14.30
2022-10-18T20:57:12.779Z,14.30
2022-10-18T20:59:39.233Z,14.20
2022-10-18T21:02:05.665Z,14.20
2022-10-18T21:04:32.075Z,14.10
2022-10-18T21:07:00.333Z,14.10
2022-10-18T21:09:26.774Z,14.00
2022-10-18T21:11:56.208Z,14.00
2022-10-18T21:14:23.730Z,14.00
2022-10-18T21:16:51.170Z,13.90
2022-10-18T21:19:19.214Z,13.90
2022-10-18T21:21:47.109Z,13.90
2022-10-18T21:24:13.623Z,13.80
2022-10-18T21:26:40.142Z,13.80
2022-10-18T21:29:06.660Z,13.80
2022-10-18T21:31:35.276Z,13.70
2022-10-18T21:34:06.194Z,13.70
2022-10-18T21:36:36.527Z,13.70
2022-10-18T21:39:07.083Z,13.70
2022-10-18T21:41:34.092Z,13.60
2022-10-18T21:44:00.852Z,13.60
2022-10-18T21:46:27.350Z,13.60
2022-10-18T21:48:54.786Z,13.60
2022-10-18T21:51:22.275Z,13.60
2022-10-18T21:53:50.556Z,13.50
2022-10-18T21:56:18.547Z,13.50
2022-10-18T21:58:45.155Z,13.50
2022-10-18T22:01:16.215Z,13.40
2022-10-18T22:03:43.784Z,13.40
2022-10-18T22:06:15.984Z,13.30
2022-10-18T22:08:43.991Z,13.30
2022-10-18T22:11:11.454Z,13.30
2022-10-18T22:13:37.890Z,13.20
2022-10-18T22:16:05.343Z,13.20
2022-10-18T22:18:31.979Z,13.20
2022-10-18T22:20:59.723Z,13.10
2022-10-18T22:23:36.607Z,13.10
2022-10-18T22:26:04.064Z,13.10
2022-10-18T22:28:30.609Z,13.00
2022-10-18T22:30:57.152Z,13.00
2022-10-18T22:33:24.807Z,13.00
2022-10-18T22:35:51.430Z,12.90
2022-10-18T22:38:18.009Z,12.90
2022-10-18T22:40:44.590Z,12.90
2022-10-18T22:43:11.337Z,12.80
2022-10-18T22:45:40.649Z,12.80
2022-10-18T22:48:07.329Z,12.80
2022-10-18T22:50:33.793Z,12.70
2022-10-18T22:53:00.301Z,12.70
2022-10-18T22:55:26.889Z,12.70
2022-10-18T22:57:55.376Z,12.70
2022-10-18T23:00:21.934Z,12.60
2022-10-18T23:02:49.359Z,12.60
2022-10-18T23:05:16.102Z,12.60
2022-10-18T23:07:46.895Z,12.60
2022-10-18T23:10:13.643Z,12.50
2022-10-18T23:12:40.106Z,12.50
2022-10-18T23:15:06.873Z,12.50
2022-10-18T23:17:33.569Z,12.50
2022-10-18T23:20:00.151Z,12.50
2022-10-18T23:22:26.640Z,12.50
2022-10-18T23:24:53.087Z,12.50
2022-10-18T23:27:19.527Z,12.50
2022-10-18T23:29:45.937Z,12.50
2022-10-18T23:32:12.458Z,12.40
2022-10-18T23:34:38.932Z,12.40
2022-10-18T23:37:05.384Z,12.40
2022-10-18T23:39:31.839Z,12.40
2022-10-18T23:41:58.309Z,12.40
2022-10-18T23:44:24.770Z,12.40
2022-10-18T23:46:51.328Z,12.40
2022-10-18T23:49:17.786Z,12.40
2022-10-18T23:51:44.575Z,12.30
2022-10-18T23:54:11.175Z,12.30
2022-10-18T23:56:41.602Z,12.30
2022-10-18T23:59:20.127Z,12.30
